EPLB

Lublin Airport

Lublin, Poland
METAR EPLB 260300Z 07001KT 6000 FEW017 BKN040 M16/M18 Q1026
Observed Flight Rules
Feb-26 @ 03:00 UTC (32 minutes ago) Marginal Visual Flight Rules
Wind Visibility Clouds
70° at 1 knots 6,003 meters
  • Few at 1,700' AGL
  • Broken at 4,000' AGL
Temperatures Readings
Current -16°C / 3°F
Dewpoint -18°C / -0°F
Humidity 85%
Altimeter 30.3" Hg
Pressure 1026 hPa
Elevation 206
METAR EPLB 260300Z 07001KT 6000 FEW017 BKN040 M16/M18 Q1026
Observed Flight Rules
Feb-26 @ 03:00 UTC
(32 minutes ago)
MVFR
Wind Visibility
70° at 1 knots 6,003 meters
Clouds
  • Few at 1,700' AGL
  • Broken at 4,000' AGL
Temperature Dewpoint
-16°C / 3°F -18°C / -0°F
Humidity Altimeter Pressure
85% 30.3" Hg 1026 hPa